sensor_id;sensor_type;location;lat;lon;timestamp;pressure;altitude;pressure_sealevel;temperature;humidity
56671;BME280;42545;50.054;8.306;2023-04-24T00:01:12;98751.09;;;9.78;100.00
56671;BME280;42545;50.054;8.306;2023-04-24T00:03:39;98755.50;;;9.77;100.00
56671;BME280;42545;50.054;8.306;2023-04-24T00:06:07;98752.88;;;9.76;100.00
56671;BME280;42545;50.054;8.306;2023-04-24T00:08:34;98751.09;;;9.76;100.00
56671;BME280;42545;50.054;8.306;2023-04-24T00:11:01;98749.38;;;9.75;100.00
56671;BME280;42545;50.054;8.306;2023-04-24T00:13:28;98742.34;;;9.74;100.00
56671;BME280;42545;50.054;8.306;2023-04-24T00:15:55;98741.47;;;9.72;100.00
56671;BME280;42545;50.054;8.306;2023-04-24T00:18:21;98732.69;;;9.69;100.00
56671;BME280;42545;50.054;8.306;2023-04-24T00:20:49;98727.44;;;9.66;100.00
56671;BME280;42545;50.054;8.306;2023-04-24T00:23:16;98736.22;;;9.63;100.00
56671;BME280;42545;50.054;8.306;2023-04-24T00:25:42;98731.81;;;9.56;100.00
56671;BME280;42545;50.054;8.306;2023-04-24T00:28:09;98737.97;;;9.61;100.00
56671;BME280;42545;50.054;8.306;2023-04-24T00:30:36;98736.19;;;9.61;100.00
56671;BME280;42545;50.054;8.306;2023-04-24T00:33:02;98731.84;;;9.62;100.00
56671;BME280;42545;50.054;8.306;2023-04-24T00:35:29;98736.22;;;9.63;100.00
56671;BME280;42545;50.054;8.306;2023-04-24T00:37:57;98728.31;;;9.63;100.00
56671;BME280;42545;50.054;8.306;2023-04-24T00:40:23;98727.44;;;9.66;100.00
56671;BME280;42545;50.054;8.306;2023-04-24T00:42:50;98729.19;;;9.67;100.00
56671;BME280;42545;50.054;8.306;2023-04-24T00:45:16;98723.03;;;9.71;100.00
56671;BME280;42545;50.054;8.306;2023-04-24T00:47:44;98724.78;;;9.70;100.00
56671;BME280;42545;50.054;8.306;2023-04-24T00:50:11;98720.38;;;9.72;100.00
56671;BME280;42545;50.054;8.306;2023-04-24T00:52:38;98713.38;;;9.70;100.00
56671;BME280;42545;50.054;8.306;2023-04-24T00:55:08;98714.25;;;9.67;100.00
56671;BME280;42545;50.054;8.306;2023-04-24T00:57:34;98709.00;;;9.64;100.00
56671;BME280;42545;50.054;8.306;2023-04-24T01:00:02;98708.13;;;9.62;100.00
56671;BME280;42545;50.054;8.306;2023-04-24T01:02:37;98709.88;;;9.57;100.00
56671;BME280;42545;50.054;8.306;2023-04-24T01:05:06;98701.13;;;9.53;100.00
56671;BME280;42545;50.054;8.306;2023-04-24T01:07:33;98700.25;;;9.50;100.00
56671;BME280;42545;50.054;8.306;2023-04-24T01:10:00;98699.38;;;9.49;100.00
56671;BME280;42545;50.054;8.306;2023-04-24T01:12:29;98702.00;;;9.48;100.00
56671;BME280;42545;50.054;8.306;2023-04-24T01:14:56;98696.72;;;9.45;100.00
56671;BME280;42545;50.054;8.306;2023-04-24T01:17:23;98705.50;;;9.43;100.00
56671;BME280;42545;50.054;8.306;2023-04-24T01:19:49;98695.84;;;9.41;100.00
56671;BME280;42545;50.054;8.306;2023-04-24T01:22:20;98698.47;;;9.39;100.00
56671;BME280;42545;50.054;8.306;2023-04-24T01:24:47;98692.34;;;9.37;100.00
56671;BME280;42545;50.054;8.306;2023-04-24T01:27:14;98692.34;;;9.37;100.00
56671;BME280;42545;50.054;8.306;2023-04-24T01:29:41;98695.84;;;9.38;100.00
56671;BME280;42545;50.054;8.306;2023-04-24T01:32:07;98692.34;;;9.39;100.00
56671;BME280;42545;50.054;8.306;2023-04-24T01:34:34;98700.25;;;9.40;100.00
56671;BME280;42545;50.054;8.306;2023-04-24T01:37:01;98697.63;;;9.42;100.00
56671;BME280;42545;50.054;8.306;2023-04-24T01:39:29;98699.38;;;9.45;100.00
56671;BME280;42545;50.054;8.306;2023-04-24T01:41:56;98692.34;;;9.45;100.00
56671;BME280;42545;50.054;8.306;2023-04-24T01:44:23;98702.00;;;9.48;100.00
56671;BME280;42545;50.054;8.306;2023-04-24T01:46:51;98700.25;;;9.48;100.00
56671;BME280;42545;50.054;8.306;2023-04-24T01:49:19;98699.34;;;9.51;100.00
56671;BME280;42545;50.054;8.306;2023-04-24T01:51:48;98701.97;;;9.51;100.00
56671;BME280;42545;50.054;8.306;2023-04-24T01:54:15;98703.75;;;9.53;100.00
56671;BME280;42545;50.054;8.306;2023-04-24T01:56:43;98702.84;;;9.54;100.00
56671;BME280;42545;50.054;8.306;2023-04-24T01:59:10;98706.34;;;9.58;100.00
56671;BME280;42545;50.054;8.306;2023-04-24T02:01:38;98704.59;;;9.61;100.00
56671;BME280;42545;50.054;8.306;2023-04-24T02:04:06;98704.59;;;9.63;100.00
56671;BME280;42545;50.054;8.306;2023-04-24T02:06:33;98716.88;;;9.67;100.00
56671;BME280;42545;50.054;8.306;2023-04-24T02:09:00;98725.66;;;9.71;100.00
56671;BME280;42545;50.054;8.306;2023-04-24T02:11:28;98726.53;;;9.76;100.00
56671;BME280;42545;50.054;8.306;2023-04-24T02:13:56;98726.53;;;9.79;100.00
56671;BME280;42545;50.054;8.306;2023-04-24T02:16:22;98717.75;;;9.83;100.00
56671;BME280;42545;50.054;8.306;2023-04-24T02:18:49;98715.97;;;9.84;100.00
56671;BME280;42545;50.054;8.306;2023-04-24T02:21:16;98722.13;;;9.84;100.00
56671;BME280;42545;50.054;8.306;2023-04-24T02:23:43;98718.59;;;9.85;100.00
56671;BME280;42545;50.054;8.306;2023-04-24T02:26:10;98720.38;;;9.88;100.00
56671;BME280;42545;50.054;8.306;2023-04-24T02:28:36;98719.47;;;9.87;100.00
56671;BME280;42545;50.054;8.306;2023-04-24T02:31:05;98715.97;;;9.88;100.00
56671;BME280;42545;50.054;8.306;2023-04-24T02:33:31;98718.63;;;9.91;100.00
56671;BME280;42545;50.054;8.306;2023-04-24T02:35:58;98726.53;;;9.91;100.00
56671;BME280;42545;50.054;8.306;2023-04-24T02:38:25;98725.63;;;9.92;100.00
56671;BME280;42545;50.054;8.306;2023-04-24T02:40:51;98730.88;;;9.92;100.00
56671;BME280;42545;50.054;8.306;2023-04-24T02:43:18;98741.44;;;9.94;100.00
56671;BME280;42545;50.054;8.306;2023-04-24T02:45:45;98724.75;;;9.93;100.00
56671;BME280;42545;50.054;8.306;2023-04-24T02:48:13;98726.47;;;9.93;100.00
56671;BME280;42545;50.054;8.306;2023-04-24T02:50:39;98726.53;;;9.91;100.00
56671;BME280;42545;50.054;8.306;2023-04-24T02:53:06;98723.88;;;9.88;100.00
56671;BME280;42545;50.054;8.306;2023-04-24T02:55:33;98737.91;;;9.90;100.00
56671;BME280;42545;50.054;8.306;2023-04-24T02:58:00;98731.78;;;9.88;100.00
56671;BME280;42545;50.054;8.306;2023-04-24T03:00:26;98737.06;;;9.87;100.00
56671;BME280;42545;50.054;8.306;2023-04-24T03:02:53;98725.66;;;9.86;100.00
56671;BME280;42545;50.054;8.306;2023-04-24T03:05:21;98732.69;;;9.86;100.00
56671;BME280;42545;50.054;8.306;2023-04-24T03:07:48;98735.31;;;9.86;100.00
56671;BME280;42545;50.054;8.306;2023-04-24T03:10:14;98735.31;;;9.84;100.00
56671;BME280;42545;50.054;8.306;2023-04-24T03:12:41;98735.31;;;9.82;100.00
56671;BME280;42545;50.054;8.306;2023-04-24T03:15:08;98731.81;;;9.79;100.00
56671;BME280;42545;50.054;8.306;2023-04-24T03:17:35;98740.56;;;9.76;100.00
56671;BME280;42545;50.054;8.306;2023-04-24T03:20:02;98748.50;;;9.75;100.00
56671;BME280;42545;50.054;8.306;2023-04-24T03:22:32;98741.47;;;9.71;100.00
56671;BME280;42545;50.054;8.306;2023-04-24T03:24:59;98750.25;;;9.70;100.00
56671;BME280;42545;50.054;8.306;2023-04-24T03:27:25;98753.78;;;9.66;100.00
56671;BME280;42545;50.054;8.306;2023-04-24T03:29:52;98749.38;;;9.63;100.00
56671;BME280;42545;50.054;8.306;2023-04-24T03:32:20;98754.63;;;9.60;100.00
56671;BME280;42545;50.054;8.306;2023-04-24T03:34:47;98763.41;;;9.56;99.79
56671;BME280;42545;50.054;8.306;2023-04-24T03:37:14;98767.81;;;9.54;98.94
56671;BME280;42545;50.054;8.306;2023-04-24T03:39:43;98771.34;;;9.50;97.17
56671;BME280;42545;50.054;8.306;2023-04-24T03:42:10;98767.84;;;9.49;95.90
56671;BME280;42545;50.054;8.306;2023-04-24T03:44:36;98769.56;;;9.49;96.22
56671;BME280;42545;50.054;8.306;2023-04-24T03:47:03;98773.06;;;9.51;95.10
56671;BME280;42545;50.054;8.306;2023-04-24T03:49:30;98780.97;;;9.51;94.80
56671;BME280;42545;50.054;8.306;2023-04-24T03:51:57;98773.97;;;9.50;93.90
56671;BME280;42545;50.054;8.306;2023-04-24T03:54:23;98782.75;;;9.42;90.72
56671;BME280;42545;50.054;8.306;2023-04-24T03:56:51;98783.59;;;9.35;89.27
56671;BME280;42545;50.054;8.306;2023-04-24T03:59:18;98789.75;;;9.30;88.42
56671;BME280;42545;50.054;8.306;2023-04-24T04:01:45;98793.25;;;9.21;87.59
56671;BME280;42545;50.054;8.306;2023-04-24T04:04:11;98792.34;;;9.16;88.64
56671;BME280;42545;50.054;8.306;2023-04-24T04:06:38;98781.81;;;9.07;86.86
56671;BME280;42545;50.054;8.306;2023-04-24T04:09:04;98780.94;;;9.00;86.54
56671;BME280;42545;50.054;8.306;2023-04-24T04:11:32;98799.31;;;8.95;87.15
56671;BME280;42545;50.054;8.306;2023-04-24T04:14:00;98805.47;;;8.91;87.42
56671;BME280;42545;50.054;8.306;2023-04-24T04:16:27;98801.94;;;8.86;87.74
56671;BME280;42545;50.054;8.306;2023-04-24T04:18:54;98801.03;;;8.81;88.38
56671;BME280;42545;50.054;8.306;2023-04-24T04:21:21;98803.66;;;8.75;88.52
56671;BME280;42545;50.054;8.306;2023-04-24T04:23:49;98801.88;;;8.68;87.60
56671;BME280;42545;50.054;8.306;2023-04-24T04:26:16;98803.63;;;8.64;87.32
56671;BME280;42545;50.054;8.306;2023-04-24T04:28:44;98812.34;;;8.61;87.89
56671;BME280;42545;50.054;8.306;2023-04-24T04:31:14;98808.84;;;8.61;88.37
56671;BME280;42545;50.054;8.306;2023-04-24T04:33:40;98814.09;;;8.55;88.24
56671;BME280;42545;50.054;8.306;2023-04-24T04:36:07;98815.84;;;8.54;88.83
56671;BME280;42545;50.054;8.306;2023-04-24T04:38:34;98820.19;;;8.52;89.42
56671;BME280;42545;50.054;8.306;2023-04-24T04:41:02;98824.59;;;8.52;89.39
56671;BME280;42545;50.054;8.306;2023-04-24T04:43:29;98833.34;;;8.52;89.43
56671;BME280;42545;50.054;8.306;2023-04-24T04:45:57;98840.34;;;8.52;89.50
56671;BME280;42545;50.054;8.306;2023-04-24T04:48:27;98837.72;;;8.50;89.43
56671;BME280;42545;50.054;8.306;2023-04-24T04:50:53;98834.22;;;8.50;89.69
56671;BME280;42545;50.054;8.306;2023-04-24T04:53:20;98838.59;;;8.48;89.85
56671;BME280;42545;50.054;8.306;2023-04-24T04:55:47;98843.81;;;8.44;89.74
56671;BME280;42545;50.054;8.306;2023-04-24T04:58:13;98845.50;;;8.39;89.85
56671;BME280;42545;50.054;8.306;2023-04-24T05:00:40;98852.50;;;8.34;88.86
56671;BME280;42545;50.054;8.306;2023-04-24T05:03:06;98859.47;;;8.29;88.98
56671;BME280;42545;50.054;8.306;2023-04-24T05:05:35;98857.69;;;8.22;88.69
56671;BME280;42545;50.054;8.306;2023-04-24T05:08:05;98858.53;;;8.19;88.82
56671;BME280;42545;50.054;8.306;2023-04-24T05:10:32;98865.53;;;8.14;87.80
56671;BME280;42545;50.054;8.306;2023-04-24T05:12:59;98883.88;;;8.11;87.04
56671;BME280;42545;50.054;8.306;2023-04-24T05:15:26;98879.47;;;8.07;86.61
56671;BME280;42545;50.054;8.306;2023-04-24T05:17:52;98885.56;;;8.03;86.27
56671;BME280;42545;50.054;8.306;2023-04-24T05:20:22;98891.69;;;8.02;85.57
56671;BME280;42545;50.054;8.306;2023-04-24T05:22:51;98892.56;;;8.02;85.48
56671;BME280;42545;50.054;8.306;2023-04-24T05:25:18;98901.31;;;8.03;85.71
56671;BME280;42545;50.054;8.306;2023-04-24T05:27:45;98896.09;;;8.06;85.73
56671;BME280;42545;50.054;8.306;2023-04-24T05:30:12;98906.63;;;8.07;85.26
56671;BME280;42545;50.054;8.306;2023-04-24T05:32:39;98903.13;;;8.10;85.05
56671;BME280;42545;50.054;8.306;2023-04-24T05:35:06;98911.03;;;8.13;85.38
56671;BME280;42545;50.054;8.306;2023-04-24T05:37:33;98908.41;;;8.12;84.66
56671;BME280;42545;50.054;8.306;2023-04-24T05:40:01;98919.81;;;8.17;84.52
56671;BME280;42545;50.054;8.306;2023-04-24T05:42:30;98914.56;;;8.17;84.78
56671;BME280;42545;50.054;8.306;2023-04-24T05:44:58;98926.84;;;8.16;84.25
56671;BME280;42545;50.054;8.306;2023-04-24T05:47:26;98926.81;;;8.15;84.83
56671;BME280;42545;50.054;8.306;2023-04-24T05:49:54;98936.47;;;8.14;84.91
56671;BME280;42545;50.054;8.306;2023-04-24T05:52:26;98949.56;;;8.11;84.86
56671;BME280;42545;50.054;8.306;2023-04-24T05:54:53;98939.91;;;8.10;84.77
56671;BME280;42545;50.054;8.306;2023-04-24T05:57:22;98954.84;;;8.14;85.18
56671;BME280;42545;50.054;8.306;2023-04-24T05:59:48;98955.81;;;8.24;84.86
56671;BME280;42545;50.054;8.306;2023-04-24T06:02:18;98961.28;;;8.50;84.68
56671;BME280;42545;50.054;8.306;2023-04-24T06:04:45;98958.84;;;8.79;83.55
56671;BME280;42545;50.054;8.306;2023-04-24T06:07:11;98963.28;;;8.94;82.91
56671;BME280;42545;50.054;8.306;2023-04-24T06:09:38;98956.38;;;9.10;81.62
56671;BME280;42545;50.054;8.306;2023-04-24T06:12:05;98947.66;;;9.23;79.60
56671;BME280;42545;50.054;8.306;2023-04-24T06:14:35;98955.59;;;9.37;80.33
56671;BME280;42545;50.054;8.306;2023-04-24T06:17:01;98959.16;;;9.44;80.54
56671;BME280;42545;50.054;8.306;2023-04-24T06:19:28;98965.31;;;9.48;80.50
56671;BME280;42545;50.054;8.306;2023-04-24T06:21:54;98964.41;;;9.47;80.16
56671;BME280;42545;50.054;8.306;2023-04-24T06:24:21;98968.78;;;9.47;80.63
56671;BME280;42545;50.054;8.306;2023-04-24T06:26:48;98972.31;;;9.42;78.68
56671;BME280;42545;50.054;8.306;2023-04-24T06:29:16;98964.41;;;9.44;79.59
56671;BME280;42545;50.054;8.306;2023-04-24T06:31:43;98974.09;;;9.53;80.35
56671;BME280;42545;50.054;8.306;2023-04-24T06:34:10;98976.75;;;9.60;80.80
56671;BME280;42545;50.054;8.306;2023-04-24T06:36:37;98969.69;;;9.56;79.11
56671;BME280;42545;50.054;8.306;2023-04-24T06:39:04;98967.94;;;9.54;78.46
56671;BME280;42545;50.054;8.306;2023-04-24T06:41:31;98972.34;;;9.55;78.89
56671;BME280;42545;50.054;8.306;2023-04-24T06:43:58;98970.59;;;9.58;79.76
56671;BME280;42545;50.054;8.306;2023-04-24T06:46:24;98966.22;;;9.67;80.23
56671;BME280;42545;50.054;8.306;2023-04-24T06:48:54;98963.63;;;9.77;79.73
56671;BME280;42545;50.054;8.306;2023-04-24T06:51:22;98975.94;;;9.86;79.24
56671;BME280;42545;50.054;8.306;2023-04-24T06:53:49;98971.53;;;9.85;77.29
56671;BME280;42545;50.054;8.306;2023-04-24T06:56:16;98975.03;;;9.81;78.80
56671;BME280;42545;50.054;8.306;2023-04-24T06:58:42;98980.31;;;9.79;79.60
56671;BME280;42545;50.054;8.306;2023-04-24T07:01:10;98967.09;;;9.67;77.95
56671;BME280;42545;50.054;8.306;2023-04-24T07:03:37;98971.47;;;9.65;78.46
56671;BME280;42545;50.054;8.306;2023-04-24T07:06:06;98980.25;;;9.62;79.32
56671;BME280;42545;50.054;8.306;2023-04-24T07:08:32;98976.75;;;9.59;79.02
56671;BME280;42545;50.054;8.306;2023-04-24T07:10:59;98967.09;;;9.55;79.14
56671;BME280;42545;50.054;8.306;2023-04-24T07:13:27;98967.06;;;9.56;79.94
56671;BME280;42545;50.054;8.306;2023-04-24T07:15:54;98967.97;;;9.61;80.11
56671;BME280;42545;50.054;8.306;2023-04-24T07:18:21;98964.47;;;9.62;78.61
56671;BME280;42545;50.054;8.306;2023-04-24T07:20:50;98967.97;;;9.65;79.03
56671;BME280;42545;50.054;8.306;2023-04-24T07:23:19;98968.88;;;9.77;79.35
56671;BME280;42545;50.054;8.306;2023-04-24T07:25:46;98962.78;;;9.88;78.12
56671;BME280;42545;50.054;8.306;2023-04-24T07:28:13;98965.38;;;9.91;77.71
56671;BME280;42545;50.054;8.306;2023-04-24T07:30:39;98969.78;;;9.96;77.31
56671;BME280;42545;50.054;8.306;2023-04-24T07:33:06;98968.03;;;10.00;77.41
56671;BME280;42545;50.054;8.306;2023-04-24T07:35:33;98986.50;;;10.03;76.12
56671;BME280;42545;50.054;8.306;2023-04-24T07:38:00;98980.34;;;10.01;76.27
56671;BME280;42545;50.054;8.306;2023-04-24T07:40:28;98973.34;;;10.17;77.05
56671;BME280;42545;50.054;8.306;2023-04-24T07:42:55;98968.06;;;10.26;75.94
56671;BME280;42545;50.054;8.306;2023-04-24T07:45:21;98979.53;;;10.31;75.34
56671;BME280;42545;50.054;8.306;2023-04-24T07:47:51;98960.16;;;10.28;74.17
56671;BME280;42545;50.054;8.306;2023-04-24T07:50:18;98983.91;;;10.40;74.04
56671;BME280;42545;50.054;8.306;2023-04-24T07:52:46;98974.25;;;10.47;73.11
56671;BME280;42545;50.054;8.306;2023-04-24T07:55:13;98972.47;;;10.46;73.45
56671;BME280;42545;50.054;8.306;2023-04-24T07:57:41;98971.59;;;10.65;74.57
56671;BME280;42545;50.054;8.306;2023-04-24T08:00:08;98967.16;;;10.78;73.23
56671;BME280;42545;50.054;8.306;2023-04-24T08:02:35;98972.41;;;10.98;73.76
56671;BME280;42545;50.054;8.306;2023-04-24T08:05:04;98977.59;;;11.24;73.41
56671;BME280;42545;50.054;8.306;2023-04-24T08:07:35;98966.97;;;11.35;72.25
56671;BME280;42545;50.054;8.306;2023-04-24T08:10:02;98967.88;;;11.35;69.97
56671;BME280;42545;50.054;8.306;2023-04-24T08:12:30;98981.00;;;11.48;70.92
56671;BME280;42545;50.054;8.306;2023-04-24T08:14:59;98969.63;;;11.41;70.27
56671;BME280;42545;50.054;8.306;2023-04-24T08:17:28;98974.03;;;11.34;68.26
56671;BME280;42545;50.054;8.306;2023-04-24T08:19:59;98983.75;;;11.20;68.62
56671;BME280;42545;50.054;8.306;2023-04-24T08:22:26;98993.47;;;11.09;68.42
56671;BME280;42545;50.054;8.306;2023-04-24T08:24:54;98981.22;;;10.89;69.26
56671;BME280;42545;50.054;8.306;2023-04-24T08:27:21;98994.44;;;10.83;67.80
56671;BME280;42545;50.054;8.306;2023-04-24T08:29:47;98990.91;;;10.67;68.45
56671;BME280;42545;50.054;8.306;2023-04-24T08:32:16;98997.97;;;10.57;69.34
56671;BME280;42545;50.054;8.306;2023-04-24T08:34:43;99000.63;;;10.47;70.42
56671;BME280;42545;50.054;8.306;2023-04-24T08:37:10;99009.41;;;10.43;71.02
56671;BME280;42545;50.054;8.306;2023-04-24T08:39:38;99012.03;;;10.39;71.96
56671;BME280;42545;50.054;8.306;2023-04-24T08:42:08;99026.09;;;10.34;72.86
56671;BME280;42545;50.054;8.306;2023-04-24T08:44:39;99030.44;;;10.26;72.92
56671;BME280;42545;50.054;8.306;2023-04-24T08:47:06;99033.94;;;10.20;73.44
56671;BME280;42545;50.054;8.306;2023-04-24T08:49:35;99034.81;;;10.13;72.62
56671;BME280;42545;50.054;8.306;2023-04-24T08:52:03;99023.41;;;10.11;73.99
56671;BME280;42545;50.054;8.306;2023-04-24T08:54:30;99033.06;;;10.12;74.83
56671;BME280;42545;50.054;8.306;2023-04-24T08:56:59;99039.22;;;10.15;74.71
56671;BME280;42545;50.054;8.306;2023-04-24T08:59:31;99033.94;;;10.20;74.87
56671;BME280;42545;50.054;8.306;2023-04-24T09:02:02;99031.34;;;10.26;74.77
56671;BME280;42545;50.054;8.306;2023-04-24T09:04:35;99029.63;;;10.31;74.82
56671;BME280;42545;50.054;8.306;2023-04-24T09:07:03;99035.78;;;10.33;74.92
56671;BME280;42545;50.054;8.306;2023-04-24T09:09:32;99041.94;;;10.35;74.44
56671;BME280;42545;50.054;8.306;2023-04-24T09:12:02;99047.19;;;10.32;74.44
56671;BME280;42545;50.054;8.306;2023-04-24T09:14:31;99041.88;;;10.25;73.63
56671;BME280;42545;50.054;8.306;2023-04-24T09:16:58;99050.69;;;10.20;73.74
56671;BME280;42545;50.054;8.306;2023-04-24T09:19:26;99041.00;;;10.19;74.18
56671;BME280;42545;50.054;8.306;2023-04-24T09:21:55;99039.25;;;10.17;74.37
56671;BME280;42545;50.054;8.306;2023-04-24T09:24:23;99043.63;;;10.19;74.60
56671;BME280;42545;50.054;8.306;2023-04-24T09:26:56;99035.75;;;10.24;75.04
56671;BME280;42545;50.054;8.306;2023-04-24T09:29:26;99041.91;;;10.31;75.25
56671;BME280;42545;50.054;8.306;2023-04-24T09:31:53;99045.44;;;10.39;74.71
56671;BME280;42545;50.054;8.306;2023-04-24T09:34:22;99046.31;;;10.49;74.83
56671;BME280;42545;50.054;8.306;2023-04-24T09:36:49;99040.19;;;10.59;74.84
56671;BME280;42545;50.054;8.306;2023-04-24T09:39:18;99048.97;;;10.67;75.50
56671;BME280;42545;50.054;8.306;2023-04-24T09:41:47;99061.28;;;10.73;74.76
56671;BME280;42545;50.054;8.306;2023-04-24T09:44:15;99056.00;;;10.70;74.22
56671;BME280;42545;50.054;8.306;2023-04-24T09:46:43;99056.00;;;10.65;74.73
56671;BME280;42545;50.054;8.306;2023-04-24T09:49:13;99058.63;;;10.62;75.17
56671;BME280;42545;50.054;8.306;2023-04-24T09:51:40;99063.91;;;10.56;74.72
56671;BME280;42545;50.054;8.306;2023-04-24T09:54:14;99076.22;;;10.46;74.68
56671;BME280;42545;50.054;8.306;2023-04-24T09:56:43;99077.94;;;10.36;74.60
56671;BME280;42545;50.054;8.306;2023-04-24T09:59:12;99078.84;;;10.32;76.33
56671;BME280;42545;50.054;8.306;2023-04-24T10:01:39;99079.69;;;10.28;77.54
56671;BME280;42545;50.054;8.306;2023-04-24T10:04:16;99080.53;;;10.27;79.19
56671;BME280;42545;50.054;8.306;2023-04-24T10:06:44;99094.59;;;10.22;80.03
56671;BME280;42545;50.054;8.306;2023-04-24T10:09:12;99091.09;;;10.15;81.41
56671;BME280;42545;50.054;8.306;2023-04-24T10:11:46;99098.09;;;10.11;82.54
56671;BME280;42545;50.054;8.306;2023-04-24T10:14:13;99091.03;;;10.06;82.03
56671;BME280;42545;50.054;8.306;2023-04-24T10:16:41;99091.06;;;10.04;82.54
56671;BME280;42545;50.054;8.306;2023-04-24T10:19:08;99110.38;;;10.08;83.83
56671;BME280;42545;50.054;8.306;2023-04-24T10:21:37;99118.31;;;10.08;83.28
56671;BME280;42545;50.054;8.306;2023-04-24T10:24:07;99121.78;;;10.04;81.94
56671;BME280;42545;50.054;8.306;2023-04-24T10:26:34;99117.38;;;10.06;83.58
56671;BME280;42545;50.054;8.306;2023-04-24T10:29:05;99123.56;;;10.11;84.73
56671;BME280;42545;50.054;8.306;2023-04-24T10:31:35;99132.34;;;10.14;85.27
56671;BME280;42545;50.054;8.306;2023-04-24T10:34:03;99137.66;;;10.17;85.72
56671;BME280;42545;50.054;8.306;2023-04-24T10:36:31;99136.78;;;10.15;87.37
56671;BME280;42545;50.054;8.306;2023-04-24T10:39:01;99141.16;;;10.19;88.00
56671;BME280;42545;50.054;8.306;2023-04-24T10:41:30;99142.97;;;10.30;89.39
56671;BME280;42545;50.054;8.306;2023-04-24T10:44:08;99137.75;;;10.44;90.48
56671;BME280;42545;50.054;8.306;2023-04-24T10:46:35;99130.75;;;10.61;91.17
56671;BME280;42545;50.054;8.306;2023-04-24T10:49:04;99131.63;;;10.80;91.25
56671;BME280;42545;50.054;8.306;2023-04-24T10:51:45;99119.31;;;11.11;89.49
56671;BME280;42545;50.054;8.306;2023-04-24T10:54:23;99120.16;;;11.35;86.27
56671;BME280;42545;50.054;8.306;2023-04-24T10:56:50;99130.69;;;11.61;85.80
56671;BME280;42545;50.054;8.306;2023-04-24T10:59:35;99129.75;;;11.74;83.03
56671;BME280;42545;50.054;8.306;2023-04-24T11:02:02;99134.09;;;11.88;82.49
56671;BME280;42545;50.054;8.306;2023-04-24T11:04:30;99128.84;;;11.94;82.58
56671;BME280;42545;50.054;8.306;2023-04-24T11:06:58;99135.91;;;11.83;79.46
56671;BME280;42545;50.054;8.306;2023-04-24T11:09:26;99142.97;;;11.70;78.66
56671;BME280;42545;50.054;8.306;2023-04-24T11:12:03;99150.06;;;11.54;79.16
56671;BME280;42545;50.054;8.306;2023-04-24T11:15:00;99151.84;;;11.35;78.83
56671;BME280;42545;50.054;8.306;2023-04-24T11:17:30;99147.47;;;11.20;77.68
56671;BME280;42545;50.054;8.306;2023-04-24T11:20:01;99147.47;;;11.28;79.71
56671;BME280;42545;50.054;8.306;2023-04-24T11:22:33;99145.72;;;11.30;77.74
56671;BME280;42545;50.054;8.306;2023-04-24T11:25:00;99136.03;;;11.26;76.59
56671;BME280;42545;50.054;8.306;2023-04-24T11:27:31;99143.03;;;11.44;78.19
56671;BME280;42545;50.054;8.306;2023-04-24T11:30:03;99151.78;;;11.77;77.85
56671;BME280;42545;50.054;8.306;2023-04-24T11:32:33;99143.78;;;12.03;74.69
56671;BME280;42545;50.054;8.306;2023-04-24T11:35:03;99128.59;;;12.40;76.09
56671;BME280;42545;50.054;8.306;2023-04-24T11:37:34;99135.50;;;12.66;74.09
56671;BME280;42545;50.054;8.306;2023-04-24T11:40:02;99135.50;;;12.69;70.01
56671;BME280;42545;50.054;8.306;2023-04-24T11:42:33;99147.03;;;12.57;67.08
56671;BME280;42545;50.054;8.306;2023-04-24T11:45:02;99158.56;;;12.42;68.66
56671;BME280;42545;50.054;8.306;2023-04-24T11:47:36;99178.06;;;12.27;71.13
56671;BME280;42545;50.054;8.306;2023-04-24T11:50:07;99192.25;;;12.03;73.66
56671;BME280;42545;50.054;8.306;2023-04-24T11:52:38;99200.25;;;11.66;75.73
56671;BME280;42545;50.054;8.306;2023-04-24T11:55:07;99202.06;;;11.23;78.49
56671;BME280;42545;50.054;8.306;2023-04-24T11:57:34;99204.59;;;10.60;79.35
56671;BME280;42545;50.054;8.306;2023-04-24T12:00:04;99218.44;;;10.05;82.19
56671;BME280;42545;50.054;8.306;2023-04-24T12:02:31;99221.72;;;9.62;85.93
56671;BME280;42545;50.054;8.306;2023-04-24T12:04:57;99219.72;;;9.32;88.26
56671;BME280;42545;50.054;8.306;2023-04-24T12:07:24;99204.56;;;9.03;89.49
56671;BME280;42545;50.054;8.306;2023-04-24T12:09:56;99201.78;;;8.88;91.71
56671;BME280;42545;50.054;8.306;2023-04-24T12:12:26;99195.63;;;8.84;94.16
56671;BME280;42545;50.054;8.306;2023-04-24T12:14:54;99197.41;;;8.88;95.60
56671;BME280;42545;50.054;8.306;2023-04-24T12:17:26;99201.94;;;9.04;98.47
56671;BME280;42545;50.054;8.306;2023-04-24T12:19:58;99200.31;;;9.19;99.45
56671;BME280;42545;50.054;8.306;2023-04-24T12:22:25;99196.03;;;9.32;100.00
56671;BME280;42545;50.054;8.306;2023-04-24T12:24:57;99194.34;;;9.43;100.00
56671;BME280;42545;50.054;8.306;2023-04-24T12:27:24;99193.47;;;9.47;100.00
56671;BME280;42545;50.054;8.306;2023-04-24T12:29:52;99197.09;;;9.58;100.00
56671;BME280;42545;50.054;8.306;2023-04-24T12:32:18;99194.53;;;9.68;100.00
56671;BME280;42545;50.054;8.306;2023-04-24T12:34:46;99202.47;;;9.80;100.00
56671;BME280;42545;50.054;8.306;2023-04-24T12:37:13;99207.81;;;9.88;99.15
56671;BME280;42545;50.054;8.306;2023-04-24T12:39:44;99209.59;;;9.95;97.58
56671;BME280;42545;50.054;8.306;2023-04-24T12:42:25;99193.78;;;9.96;93.48
56671;BME280;42545;50.054;8.306;2023-04-24T12:44:56;99190.31;;;10.00;90.74
56671;BME280;42545;50.054;8.306;2023-04-24T12:47:23;99191.22;;;10.09;90.74
56671;BME280;42545;50.054;8.306;2023-04-24T12:49:52;99199.19;;;10.23;90.33
56671;BME280;42545;50.054;8.306;2023-04-24T12:52:20;99192.28;;;10.52;91.65
56671;BME280;42545;50.054;8.306;2023-04-24T12:54:47;99190.59;;;10.79;89.94
56671;BME280;42545;50.054;8.306;2023-04-24T12:57:15;99188.81;;;10.95;87.95
56671;BME280;42545;50.054;8.306;2023-04-24T12:59:41;99196.75;;;11.01;84.73
56671;BME280;42545;50.054;8.306;2023-04-24T13:02:08;99192.34;;;11.08;84.64
56671;BME280;42545;50.054;8.306;2023-04-24T13:04:35;99197.63;;;11.11;83.53
56671;BME280;42545;50.054;8.306;2023-04-24T13:07:04;99202.94;;;11.05;81.57
56671;BME280;42545;50.054;8.306;2023-04-24T13:09:31;99208.19;;;11.02;82.13